Latest Weather Observations for Portland Harbour

IDV60801

Issued at 11:35 pm EST Thursday 21 August 2014 (issued every 30 minutes, with the page automatically refreshed every 10 minutes)

About weather observations | Map of weather stations | Latest weather observations for VIC | Other Formats
Station Details ID: 090192 Name: PORTLAND NTC AWS Lat: -38.34 Lon: 141.61 Height: 0.0 m
Data from the previous 72 hours. | See also: Recent months for locations in Victoria
Date/Time
EST
Temp
°C
App
Temp
°C
Dew
Point
Rel
Hum
%
Delta-T
°C
Wind Press
QNH
hPa
Press
MSL
hPa
Rain
since 9 am
mm
Dir
 
Spd
km/h
Gust
km/h
Spd
kts
Gust
kts
21/11:30pm 10.7 - - - - NNE 11 13 6 7 1027.8 1027.8 -
21/11:00pm 10.9 - - - - N 11 13 6 7 1027.8 1027.8 -
21/10:30pm 11.6 - - - - N 9 13 5 7 1027.8 1027.8 -
21/10:00pm 11.9 - - - - NNE 11 13 6 7 1027.8 1027.8 -
21/09:30pm 11.6 - - - - N 11 13 6 7 1027.8 1027.8 -
21/09:00pm 12.1 - - - - N 11 13 6 7 1027.7 1027.7 -
21/08:30pm 13.0 - - - - NNE 13 17 7 9 1027.5 1027.5 -
21/08:00pm 13.1 - - - - NE 15 19 8 10 1027.3 1027.3 -
21/07:30pm 13.0 - - - - ENE 15 19 8 10 1027.4 1027.4 -
21/07:00pm 12.9 - - - - E 15 17 8 9 1027.3 1027.3 -
21/06:30pm 12.9 - - - - E 15 19 8 10 1027.2 1027.2 -
21/06:00pm 12.8 - - - - E 19 22 10 12 1026.8 1026.8 -
21/05:30pm 12.7 - - - - E 17 20 9 11 1026.7 1026.7 -
21/05:00pm 12.7 - - - - E 15 20 8 11 1026.6 1026.6 -
21/04:30pm 12.7 - - - - E 11 15 6 8 1026.4 1026.4 -
21/04:00pm 12.3 - - - - E 9 13 5 7 1026.2 1026.2 -
21/03:30pm 12.6 - - - - E 11 15 6 8 1026.3 1026.3 -
21/03:00pm 12.5 - - - - E 11 17 6 9 1026.4 1026.4 -
21/02:30pm 12.7 - - - - ESE 11 15 6 8 1026.4 1026.4 -
21/02:00pm 12.7 - - - - ESE 11 15 6 8 1026.5 1026.5 -
21/01:30pm 11.9 - - - - E 9 13 5 7 1026.9 1026.9 -
21/01:00pm 12.1 - - - - E 9 11 5 6 1027.3 1027.3 -
21/12:30pm 11.9 - - - - E 6 11 3 6 1027.6 1027.6 -
21/12:00pm 11.4 - - - - E 7 9 4 5 1028.1 1028.1 -
21/11:30am 11.3 - - - - E 7 11 4 6 1028.4 1028.4 -
21/11:00am 11.2 - - - - ENE 7 9 4 5 1028.7 1028.7 -
21/10:30am 10.9 - - - - NE 6 7 3 4 1028.8 1028.8 -
21/10:00am 10.8 - - - - NE 4 7 2 4 1028.9 1028.9 -
21/09:30am 10.4 - - - - S 2 4 1 2 1028.8 1028.8 -
21/09:00am 9.8 - - - - SW 4 6 2 3 1028.8 1028.8 -
21/08:30am 9.2 - - - - W 4 7 2 4 1028.8 1028.8 -
21/08:00am 9.3 - - - - W 6 7 3 4 1028.7 1028.7 -
21/07:30am 9.0 - - - - WNW 7 9 4 5 1028.4 1028.4 -
21/07:00am 9.0 - - - - WSW 6 6 3 3 1028.2 1028.2 -
21/06:30am 9.2 - - - - WSW 6 9 3 5 1027.9 1027.9 -
21/06:00am 9.3 - - - - W 4 6 2 3 1027.9 1027.9 -
21/05:30am 9.4 - - - - NW 7 11 4 6 1027.8 1027.8 -
21/05:00am 9.8 - - - - CALM 0 2 0 1 1027.9 1027.9 -
21/04:30am 9.9 - - - - CALM 0 2 0 1 1027.8 1027.8 -
21/04:00am 9.7 - - - - NNW 4 7 2 4 1027.9 1027.9 -
21/03:30am 10.0 - - - - N 7 9 4 5 1027.9 1027.9 -
21/03:00am 10.2 - - - - NE 13 19 7 10 1028.0 1028.0 -
21/02:30am 10.3 - - - - NNE 15 19 8 10 1028.1 1028.1 -
21/02:00am 10.4 - - - - N 13 17 7 9 1028.1 1028.1 -
21/01:30am 12.0 - - - - E 19 24 10 13 1028.1 1028.1 -
21/01:00am 11.9 - - - - E 13 19 7 10 1028.2 1028.2 -
21/12:30am 11.2 - - - - ESE 20 26 11 14 1028.3 1028.3 -
21/12:00am 11.7 - - - - NE 15 19 8 10 1028.2 1028.2 -
 
Date/Time
EST
Temp
°C
App
Temp
°C
Dew
Point
Rel
Hum
%
Delta-T
°C
Wind Press
QNH
hPa
Press
MSL
hPa
Rain
since 9 am
mm
Dir
 
Spd
km/h
Gust
km/h
Spd
kts
Gust
kts
20/11:30pm 11.6 - - - - NNE 15 17 8 9 1028.2 1028.2 -
20/11:00pm 12.7 - - - - SE 20 26 11 14 1028.1 1028.1 -
20/10:30pm 12.3 - - - - ESE 13 17 7 9 1028.2 1028.2 -
20/10:00pm 12.1 - - - - SE 20 30 11 16 1028.3 1028.3 -
20/09:30pm 11.5 - - - - SSE 9 15 5 8 1028.3 1028.3 -
20/09:00pm 11.8 - - - - ESE 15 22 8 12 1028.4 1028.4 -
20/08:30pm 12.1 - - - - SSE 15 19 8 10 1028.3 1028.3 -
20/08:00pm 12.3 - - - - ESE 13 17 7 9 1028.4 1028.4 -
20/07:30pm 11.9 - - - - SSE 11 15 6 8 1028.4 1028.4 -
20/07:00pm 11.7 - - - - E 9 11 5 6 1028.4 1028.4 -
20/06:30pm 12.0 - - - - SSE 13 17 7 9 1028.3 1028.3 -
20/06:00pm 12.0 - - - - SSE 13 17 7 9 1028.1 1028.1 -
20/05:30pm 12.4 - - - - SE 9 13 5 7 1027.9 1027.9 -
20/05:00pm 12.4 - - - - SE 9 17 5 9 1027.8 1027.8 -
20/04:30pm 12.4 - - - - SE 11 17 6 9 1027.6 1027.6 -
20/04:00pm 12.3 - - - - SE 11 17 6 9 1027.6 1027.6 -
20/03:30pm 12.5 - - - - SE 11 17 6 9 1027.5 1027.5 -
20/03:00pm 12.3 - - - - ESE 11 15 6 8 1027.3 1027.3 -
20/02:30pm 12.4 - - - - ESE 11 15 6 8 1027.3 1027.3 -
20/02:00pm 12.3 - - - - ESE 15 19 8 10 1027.3 1027.3 -
20/01:30pm 12.4 - - - - ESE 11 15 6 8 1027.5 1027.5 -
20/01:00pm 12.3 - - - - SE 11 17 6 9 1027.7 1027.7 -
20/12:30pm 12.4 - - - - ESE 9 15 5 8 1028.0 1028.0 -
20/12:00pm 12.4 - - - - SE 13 19 7 10 1028.1 1028.1 -
20/11:30am 12.2 - - - - ESE 11 17 6 9 1028.4 1028.4 -
20/11:00am 11.7 - - - - ESE 17 20 9 11 1028.4 1028.4 -
20/10:30am 12.0 - - - - ESE 17 22 9 12 1028.2 1028.2 -
20/10:00am 12.0 - - - - SE 19 22 10 12 1028.2 1028.2 -
20/09:30am 12.0 - - - - SSE 13 19 7 10 1028.0 1028.0 -
20/09:00am 11.6 - - - - SSE 17 20 9 11 1027.9 1027.9 -
20/08:30am 11.7 - - - - SSE 17 24 9 13 1027.6 1027.6 -
20/08:00am 11.4 - - - - S 11 15 6 8 1027.3 1027.3 -
20/07:30am 11.3 - - - - S 9 15 5 8 1027.1 1027.1 -
20/07:00am 11.3 - - - - S 15 20 8 11 1026.9 1026.9 -
20/06:30am 11.5 - - - - S 13 19 7 10 1026.5 1026.5 -
20/06:00am 11.8 - - - - S 11 15 6 8 1026.3 1026.3 -
20/05:30am 11.6 - - - - S 11 15 6 8 1026.3 1026.3 -
20/05:00am 10.5 - - - - SW 7 15 4 8 1026.1 1026.1 -
20/04:30am 10.1 - - - - WSW 6 9 3 5 1026.0 1026.0 -
20/04:00am 9.8 - - - - W 7 13 4 7 1026.1 1026.1 -
20/03:30am 10.0 - - - - W 7 9 4 5 1026.1 1026.1 -
20/03:00am 11.3 - - - - S 7 9 4 5 1026.3 1026.3 -
20/02:30am 10.9 - - - - S 6 9 3 5 1026.5 1026.5 -
20/02:00am 10.4 - - - - WSW 4 6 2 3 1026.6 1026.6 -
20/01:30am 11.1 - - - - SE 13 19 7 10 1026.7 1026.7 -
20/01:00am 10.6 - - - - S 17 22 9 12 1026.9 1026.9 -
20/12:30am 10.4 - - - - SW 11 15 6 8 1026.7 1026.7 -
20/12:00am 10.1 - - - - SW 13 17 7 9 1026.8 1026.8 -
 
Date/Time
EST
Temp
°C
App
Temp
°C
Dew
Point
Rel
Hum
%
Delta-T
°C
Wind Press
QNH
hPa
Press
MSL
hPa
Rain
since 9 am
mm
Dir
 
Spd
km/h
Gust
km/h
Spd
kts
Gust
kts
19/11:30pm 9.7 - - - - W 9 13 5 7 1026.8 1026.8 -
19/11:00pm 9.9 - - - - W 7 9 4 5 1026.9 1026.9 -
19/10:30pm 10.2 - - - - WSW 2 4 1 2 1027.0 1027.0 -
19/10:00pm 10.1 - - - - WSW 6 9 3 5 1027.0 1027.0 -
19/09:30pm 10.5 - - - - S 4 6 2 3 1027.0 1027.0 -
19/09:00pm 10.3 - - - - SSW 9 13 5 7 1027.1 1027.1 -
19/08:30pm 10.1 - - - - S 13 20 7 11 1026.9 1026.9 -
19/08:00pm 10.4 - - - - WSW 7 11 4 6 1026.7 1026.7 -
19/07:30pm 10.6 - - - - SW 9 13 5 7 1026.7 1026.7 -
19/07:00pm 11.0 - - - - SW 9 11 5 6 1026.5 1026.5 -
19/06:30pm 11.3 - - - - SSW 11 17 6 9 1026.2 1026.2 -
19/06:00pm 11.8 - - - - SSW 13 15 7 8 1025.9 1025.9 -
19/05:30pm 11.9 - - - - S 11 15 6 8 1025.6 1025.6 -
19/05:00pm 11.9 - - - - S 13 20 7 11 1025.5 1025.5 -
19/04:30pm 12.1 - - - - SSE 11 20 6 11 1025.4 1025.4 -
19/04:00pm 12.2 - - - - SE 11 17 6 9 1025.4 1025.4 -
19/03:30pm 12.2 - - - - SE 13 19 7 10 1025.4 1025.4 -
19/03:00pm 12.2 - - - - ESE 11 17 6 9 1025.4 1025.4 -
19/02:30pm 12.2 - - - - SE 15 20 8 11 1025.3 1025.3 -
19/02:00pm 12.2 - - - - ESE 11 19 6 10 1025.3 1025.3 -
19/01:30pm 12.3 - - - - ESE 13 19 7 10 1025.5 1025.5 -
19/01:00pm 12.2 - - - - SE 13 17 7 9 1025.8 1025.8 -
19/12:30pm 12.4 - - - - ESE 11 19 6 10 1026.1 1026.1 -
19/12:00pm 12.2 - - - - ESE 11 20 6 11 1026.5 1026.5 -
19/11:30am 12.0 - - - - SSE 15 30 8 16 1026.7 1026.7 -
19/11:00am 11.6 - - - - S 20 28 11 15 1026.8 1026.8 -
19/10:30am 11.8 - - - - S 17 24 9 13 1026.7 1026.7 -
19/10:00am 11.6 - - - - SSE 15 22 8 12 1026.6 1026.6 -
19/09:30am 11.6 - - - - SSE 17 26 9 14 1026.5 1026.5 -
19/09:00am 11.5 - - - - SSE 19 26 10 14 1026.3 1026.3 -
19/08:30am 11.5 - - - - SSE 17 24 9 13 1026.2 1026.2 -
19/08:00am 11.6 - - - - SSE 20 26 11 14 1025.8 1025.8 -
19/07:30am 11.5 - - - - S 19 26 10 14 1025.4 1025.4 -
19/07:00am 11.4 - - - - S 11 17 6 9 1025.2 1025.2 -
19/06:30am 11.4 - - - - S 15 22 8 12 1025.0 1025.0 -
19/06:00am 11.4 - - - - SSE 11 17 6 9 1024.9 1024.9 -
19/05:30am 11.4 - - - - S 15 24 8 13 1024.8 1024.8 -
19/05:00am 11.6 - - - - SSE 13 22 7 12 1024.7 1024.7 -
19/04:30am 11.6 - - - - SSE 17 24 9 13 1024.5 1024.5 -
19/04:00am 11.4 - - - - SSE 15 19 8 10 1024.5 1024.5 -
19/03:30am 11.4 - - - - SSE 13 20 7 11 1024.5 1024.5 -
19/03:00am 11.6 - - - - SE 17 28 9 15 1024.6 1024.6 -
19/02:30am 11.3 - - - - S 11 19 6 10 1024.9 1024.9 -
19/02:00am 11.4 - - - - S 17 26 9 14 1024.8 1024.8 -
19/01:30am 11.3 - - - - S 19 26 10 14 1024.8 1024.8 -
19/01:00am 11.3 - - - - S 19 24 10 13 1024.8 1024.8 -
19/12:30am 10.9 - - - - S 15 19 8 10 1025.1 1025.1 -
19/12:00am 10.8 - - - - S 13 19 7 10 1025.2 1025.2 -

Other Formats:

Comma delimited format used in spreadsheet applications
http://www.bom.gov.au/fwo/IDV60801/IDV60801.95826.axf

JavaScript Object Notation format (JSON) in row-major order
http://www.bom.gov.au/fwo/IDV60801/IDV60801.95826.json